sensor_id;sensor_type;location;lat;lon;timestamp;temperature;humidity
61896;DHT22;47835;52.778;5.956;2022-08-11T00:01:16;22.10;95.10
61896;DHT22;47835;52.778;5.956;2022-08-11T00:03:47;22.10;95.10
61896;DHT22;47835;52.778;5.956;2022-08-11T00:06:25;22.10;95.00
61896;DHT22;47835;52.778;5.956;2022-08-11T00:08:52;22.10;95.00
61896;DHT22;47835;52.778;5.956;2022-08-11T00:11:19;22.10;95.00
61896;DHT22;47835;52.778;5.956;2022-08-11T00:13:48;22.10;95.00
61896;DHT22;47835;52.778;5.956;2022-08-11T00:16:19;22.10;95.00
61896;DHT22;47835;52.778;5.956;2022-08-11T00:18:48;22.00;95.00
61896;DHT22;47835;52.778;5.956;2022-08-11T00:21:15;22.00;95.00
61896;DHT22;47835;52.778;5.956;2022-08-11T00:23:57;22.00;95.00
61896;DHT22;47835;52.778;5.956;2022-08-11T00:26:25;22.00;95.00
61896;DHT22;47835;52.778;5.956;2022-08-11T00:28:51;22.00;94.90
61896;DHT22;47835;52.778;5.956;2022-08-11T00:31:30;22.00;95.00
61896;DHT22;47835;52.778;5.956;2022-08-11T00:33:57;22.00;95.10
61896;DHT22;47835;52.778;5.956;2022-08-11T00:36:37;22.00;95.00
61896;DHT22;47835;52.778;5.956;2022-08-11T00:39:04;22.00;95.10
61896;DHT22;47835;52.778;5.956;2022-08-11T00:41:35;22.00;95.00
61896;DHT22;47835;52.778;5.956;2022-08-11T00:49:37;22.00;95.10
61896;DHT22;47835;52.778;5.956;2022-08-11T00:52:28;21.90;95.00
61896;DHT22;47835;52.778;5.956;2022-08-11T01:01:06;22.00;94.90
61896;DHT22;47835;52.778;5.956;2022-08-11T01:09:20;21.90;94.80
61896;DHT22;47835;52.778;5.956;2022-08-11T01:12:20;21.90;94.70
61896;DHT22;47835;52.778;5.956;2022-08-11T01:14:57;21.90;94.60
61896;DHT22;47835;52.778;5.956;2022-08-11T01:20:44;21.90;94.70
61896;DHT22;47835;52.778;5.956;2022-08-11T01:26:53;21.80;94.70
61896;DHT22;47835;52.778;5.956;2022-08-11T01:44:56;21.80;94.50
61896;DHT22;47835;52.778;5.956;2022-08-11T01:47:46;21.80;94.50
61896;DHT22;47835;52.778;5.956;2022-08-11T01:53:14;21.80;94.40
61896;DHT22;47835;52.778;5.956;2022-08-11T02:02:32;21.80;94.40
61896;DHT22;47835;52.778;5.956;2022-08-11T02:04:58;21.80;94.40
61896;DHT22;47835;52.778;5.956;2022-08-11T02:13:36;21.70;94.00
61896;DHT22;47835;52.778;5.956;2022-08-11T02:16:16;21.70;94.00
61896;DHT22;47835;52.778;5.956;2022-08-11T02:18:48;21.70;94.00
61896;DHT22;47835;52.778;5.956;2022-08-11T02:21:45;21.70;94.00
61896;DHT22;47835;52.778;5.956;2022-08-11T02:24:46;21.70;93.90
61896;DHT22;47835;52.778;5.956;2022-08-11T02:27:17;21.70;94.00
61896;DHT22;47835;52.778;5.956;2022-08-11T02:29:54;21.70;93.90
61896;DHT22;47835;52.778;5.956;2022-08-11T02:35:28;21.70;94.00
61896;DHT22;47835;52.778;5.956;2022-08-11T02:38:15;21.60;93.80
61896;DHT22;47835;52.778;5.956;2022-08-11T02:43:48;21.60;94.00
61896;DHT22;47835;52.778;5.956;2022-08-11T02:46:27;21.60;94.00
61896;DHT22;47835;52.778;5.956;2022-08-11T02:52:07;21.60;94.00
61896;DHT22;47835;52.778;5.956;2022-08-11T02:54:57;21.60;93.80
61896;DHT22;47835;52.778;5.956;2022-08-11T03:00:09;21.60;93.90
61896;DHT22;47835;52.778;5.956;2022-08-11T03:05:54;21.50;93.80
61896;DHT22;47835;52.778;5.956;2022-08-11T03:11:21;21.50;93.80
61896;DHT22;47835;52.778;5.956;2022-08-11T03:14:11;21.50;93.80
61896;DHT22;47835;52.778;5.956;2022-08-11T03:25:56;21.50;93.60
61896;DHT22;47835;52.778;5.956;2022-08-11T03:28:30;21.50;93.70
61896;DHT22;47835;52.778;5.956;2022-08-11T03:31:26;21.50;93.70
61896;DHT22;47835;52.778;5.956;2022-08-11T03:34:25;21.50;93.50
61896;DHT22;47835;52.778;5.956;2022-08-11T03:39:54;21.50;93.50
61896;DHT22;47835;52.778;5.956;2022-08-11T03:45:24;21.50;93.60
61896;DHT22;47835;52.778;5.956;2022-08-11T04:10:53;21.40;93.70
61896;DHT22;47835;52.778;5.956;2022-08-11T04:13:48;21.40;93.60
61896;DHT22;47835;52.778;5.956;2022-08-11T04:16:40;21.40;93.60
61896;DHT22;47835;52.778;5.956;2022-08-11T04:27:56;21.30;93.30
61896;DHT22;47835;52.778;5.956;2022-08-11T04:35:51;21.10;93.20
61896;DHT22;47835;52.778;5.956;2022-08-11T04:38:56;21.00;93.50
61896;DHT22;47835;52.778;5.956;2022-08-11T04:47:58;20.80;94.10
61896;DHT22;47835;52.778;5.956;2022-08-11T04:51:03;20.70;94.60
61896;DHT22;47835;52.778;5.956;2022-08-11T04:54:15;20.70;94.90
61896;DHT22;47835;52.778;5.956;2022-08-11T04:57:16;20.60;95.30
61896;DHT22;47835;52.778;5.956;2022-08-11T05:03:13;20.60;95.90
61896;DHT22;47835;52.778;5.956;2022-08-11T05:06:09;20.50;96.20
61896;DHT22;47835;52.778;5.956;2022-08-11T05:09:07;20.50;96.40
61896;DHT22;47835;52.778;5.956;2022-08-11T05:14:35;20.50;97.00
61896;DHT22;47835;52.778;5.956;2022-08-11T05:17:26;20.40;97.60
61896;DHT22;47835;52.778;5.956;2022-08-11T05:20:14;20.40;98.00
61896;DHT22;47835;52.778;5.956;2022-08-11T05:23:04;20.40;98.30
61896;DHT22;47835;52.778;5.956;2022-08-11T05:25:51;20.40;98.50
61896;DHT22;47835;52.778;5.956;2022-08-11T05:28:43;20.40;98.80
61896;DHT22;47835;52.778;5.956;2022-08-11T05:31:35;20.40;98.70
61896;DHT22;47835;52.778;5.956;2022-08-11T05:34:30;20.50;98.80
61896;DHT22;47835;52.778;5.956;2022-08-11T05:42:58;20.60;99.60
61896;DHT22;47835;52.778;5.956;2022-08-11T05:45:43;20.60;99.70
61896;DHT22;47835;52.778;5.956;2022-08-11T05:48:32;20.70;99.40
61896;DHT22;47835;52.778;5.956;2022-08-11T05:51:17;20.60;99.90
61896;DHT22;47835;52.778;5.956;2022-08-11T05:54:03;20.70;99.90
61896;DHT22;47835;52.778;5.956;2022-08-11T05:56:53;20.70;99.80
61896;DHT22;47835;52.778;5.956;2022-08-11T05:59:21;20.80;99.90
61896;DHT22;47835;52.778;5.956;2022-08-11T06:01:48;20.70;99.90
61896;DHT22;47835;52.778;5.956;2022-08-11T06:04:20;20.70;99.90
61896;DHT22;47835;52.778;5.956;2022-08-11T06:06:57;20.70;99.90
61896;DHT22;47835;52.778;5.956;2022-08-11T06:09:27;20.70;99.90
61896;DHT22;47835;52.778;5.956;2022-08-11T06:11:56;20.70;99.90
61896;DHT22;47835;52.778;5.956;2022-08-11T06:14:23;20.80;99.90
61896;DHT22;47835;52.778;5.956;2022-08-11T06:16:49;20.80;99.90
61896;DHT22;47835;52.778;5.956;2022-08-11T06:19:19;20.80;99.90
61896;DHT22;47835;52.778;5.956;2022-08-11T06:21:47;20.90;99.90
61896;DHT22;47835;52.778;5.956;2022-08-11T06:24:16;20.90;99.90
61896;DHT22;47835;52.778;5.956;2022-08-11T06:26:50;20.90;99.90
61896;DHT22;47835;52.778;5.956;2022-08-11T06:29:17;20.90;99.90
61896;DHT22;47835;52.778;5.956;2022-08-11T06:32:00;21.00;99.90
61896;DHT22;47835;52.778;5.956;2022-08-11T06:40:12;21.20;99.90
61896;DHT22;47835;52.778;5.956;2022-08-11T06:47:51;21.30;99.60
61896;DHT22;47835;52.778;5.956;2022-08-11T06:50:19;21.30;99.40
61896;DHT22;47835;52.778;5.956;2022-08-11T06:53:08;21.40;99.20
61896;DHT22;47835;52.778;5.956;2022-08-11T06:55:38;21.40;99.20
61896;DHT22;47835;52.778;5.956;2022-08-11T06:58:30;21.40;98.80
61896;DHT22;47835;52.778;5.956;2022-08-11T07:01:28;21.40;99.00
61896;DHT22;47835;52.778;5.956;2022-08-11T07:04:06;21.50;98.70
61896;DHT22;47835;52.778;5.956;2022-08-11T07:06:50;21.50;98.40
61896;DHT22;47835;52.778;5.956;2022-08-11T07:12:43;21.50;98.20
61896;DHT22;47835;52.778;5.956;2022-08-11T07:15:32;21.60;98.20
61896;DHT22;47835;52.778;5.956;2022-08-11T07:18:17;21.60;98.10
61896;DHT22;47835;52.778;5.956;2022-08-11T07:21:34;21.60;97.80
61896;DHT22;47835;52.778;5.956;2022-08-11T07:24:24;21.60;97.70
61896;DHT22;47835;52.778;5.956;2022-08-11T07:27:17;21.70;97.40
61896;DHT22;47835;52.778;5.956;2022-08-11T07:30:05;21.70;97.40
61896;DHT22;47835;52.778;5.956;2022-08-11T07:32:38;21.70;97.60
61896;DHT22;47835;52.778;5.956;2022-08-11T07:35:14;21.70;97.40
61896;DHT22;47835;52.778;5.956;2022-08-11T07:37:49;21.70;97.50
61896;DHT22;47835;52.778;5.956;2022-08-11T07:40:24;21.80;97.60
61896;DHT22;47835;52.778;5.956;2022-08-11T07:42:51;21.80;97.70
61896;DHT22;47835;52.778;5.956;2022-08-11T07:45:18;21.90;98.20
61896;DHT22;47835;52.778;5.956;2022-08-11T07:48:03;21.90;98.20
61896;DHT22;47835;52.778;5.956;2022-08-11T07:50:49;21.90;97.80
61896;DHT22;47835;52.778;5.956;2022-08-11T07:53:34;22.00;98.00
61896;DHT22;47835;52.778;5.956;2022-08-11T07:56:03;22.00;97.80
61896;DHT22;47835;52.778;5.956;2022-08-11T07:58:31;22.00;97.90
61896;DHT22;47835;52.778;5.956;2022-08-11T08:01:19;22.00;97.90
61896;DHT22;47835;52.778;5.956;2022-08-11T08:04:05;22.10;97.50
61896;DHT22;47835;52.778;5.956;2022-08-11T08:06:50;22.10;97.30
61896;DHT22;47835;52.778;5.956;2022-08-11T08:09:35;22.10;97.30
61896;DHT22;47835;52.778;5.956;2022-08-11T08:12:21;22.10;97.50
61896;DHT22;47835;52.778;5.956;2022-08-11T08:15:08;22.20;97.80
61896;DHT22;47835;52.778;5.956;2022-08-11T08:17:54;22.20;97.40
61896;DHT22;47835;52.778;5.956;2022-08-11T08:20:28;22.20;97.80
61896;DHT22;47835;52.778;5.956;2022-08-11T08:22:59;22.20;97.60
61896;DHT22;47835;52.778;5.956;2022-08-11T08:25:33;22.20;97.10
61896;DHT22;47835;52.778;5.956;2022-08-11T08:28:02;22.20;97.00
61896;DHT22;47835;52.778;5.956;2022-08-11T08:30:30;22.20;96.90
61896;DHT22;47835;52.778;5.956;2022-08-11T08:33:17;22.20;97.10
61896;DHT22;47835;52.778;5.956;2022-08-11T08:35:43;22.30;96.80
61896;DHT22;47835;52.778;5.956;2022-08-11T08:38:10;22.30;96.70
61896;DHT22;47835;52.778;5.956;2022-08-11T08:40:38;22.30;97.00
61896;DHT22;47835;52.778;5.956;2022-08-11T08:43:09;22.30;97.10
61896;DHT22;47835;52.778;5.956;2022-08-11T08:45:36;22.30;97.00
61896;DHT22;47835;52.778;5.956;2022-08-11T08:48:08;22.30;97.00
61896;DHT22;47835;52.778;5.956;2022-08-11T08:50:42;22.30;96.90
61896;DHT22;47835;52.778;5.956;2022-08-11T08:53:31;22.30;96.80
61896;DHT22;47835;52.778;5.956;2022-08-11T08:56:00;22.30;96.80
61896;DHT22;47835;52.778;5.956;2022-08-11T08:58:26;22.30;96.90
61896;DHT22;47835;52.778;5.956;2022-08-11T09:00:55;22.40;96.80
61896;DHT22;47835;52.778;5.956;2022-08-11T09:03:23;22.30;96.40
61896;DHT22;47835;52.778;5.956;2022-08-11T09:05:53;22.40;96.40
61896;DHT22;47835;52.778;5.956;2022-08-11T09:08:19;22.40;96.40
61896;DHT22;47835;52.778;5.956;2022-08-11T09:10:46;22.40;96.30
61896;DHT22;47835;52.778;5.956;2022-08-11T09:13:34;22.40;96.60
61896;DHT22;47835;52.778;5.956;2022-08-11T09:16:01;22.40;96.40
61896;DHT22;47835;52.778;5.956;2022-08-11T09:18:28;22.50;97.30
61896;DHT22;47835;52.778;5.956;2022-08-11T09:20:56;22.50;97.30
61896;DHT22;47835;52.778;5.956;2022-08-11T09:23:21;22.50;98.20
61896;DHT22;47835;52.778;5.956;2022-08-11T09:26:06;22.60;98.10
61896;DHT22;47835;52.778;5.956;2022-08-11T09:28:51;22.60;98.30
61896;DHT22;47835;52.778;5.956;2022-08-11T09:31:17;22.60;97.30
61896;DHT22;47835;52.778;5.956;2022-08-11T09:33:46;22.60;97.40
61896;DHT22;47835;52.778;5.956;2022-08-11T09:36:12;22.50;97.00
61896;DHT22;47835;52.778;5.956;2022-08-11T09:38:57;22.60;96.90
61896;DHT22;47835;52.778;5.956;2022-08-11T09:41:43;22.50;96.90
61896;DHT22;47835;52.778;5.956;2022-08-11T09:44:09;22.60;96.60
61896;DHT22;47835;52.778;5.956;2022-08-11T09:46:55;22.60;96.70
61896;DHT22;47835;52.778;5.956;2022-08-11T09:49:25;22.60;97.50
61896;DHT22;47835;52.778;5.956;2022-08-11T09:51:52;22.60;97.30
61896;DHT22;47835;52.778;5.956;2022-08-11T09:54:18;22.60;97.20
61896;DHT22;47835;52.778;5.956;2022-08-11T09:56:44;22.60;97.40
61896;DHT22;47835;52.778;5.956;2022-08-11T09:59:29;22.60;97.40
61896;DHT22;47835;52.778;5.956;2022-08-11T10:01:59;22.60;97.00
61896;DHT22;47835;52.778;5.956;2022-08-11T10:04:33;22.60;97.10
61896;DHT22;47835;52.778;5.956;2022-08-11T10:07:03;22.60;97.00
61896;DHT22;47835;52.778;5.956;2022-08-11T10:12:53;22.60;96.80
61896;DHT22;47835;52.778;5.956;2022-08-11T10:15:15;22.60;96.80
61896;DHT22;47835;52.778;5.956;2022-08-11T10:18:11;22.70;96.60
61896;DHT22;47835;52.778;5.956;2022-08-11T10:20:59;22.70;96.40
61896;DHT22;47835;52.778;5.956;2022-08-11T10:23:30;22.70;96.40
61896;DHT22;47835;52.778;5.956;2022-08-11T10:26:17;22.70;96.70
61896;DHT22;47835;52.778;5.956;2022-08-11T10:29:02;22.70;96.60
61896;DHT22;47835;52.778;5.956;2022-08-11T10:31:51;22.70;96.80
61896;DHT22;47835;52.778;5.956;2022-08-11T10:34:37;22.70;96.60
61896;DHT22;47835;52.778;5.956;2022-08-11T10:37:03;22.70;96.30
61896;DHT22;47835;52.778;5.956;2022-08-11T10:39:29;22.80;96.40
61896;DHT22;47835;52.778;5.956;2022-08-11T10:41:56;22.70;96.40
61896;DHT22;47835;52.778;5.956;2022-08-11T10:44:43;22.80;96.70
61896;DHT22;47835;52.778;5.956;2022-08-11T10:47:11;22.80;97.10
61896;DHT22;47835;52.778;5.956;2022-08-11T10:49:56;22.80;97.20
61896;DHT22;47835;52.778;5.956;2022-08-11T10:52:42;22.80;97.30
61896;DHT22;47835;52.778;5.956;2022-08-11T10:55:27;22.80;97.30
61896;DHT22;47835;52.778;5.956;2022-08-11T10:58:13;22.80;96.80
61896;DHT22;47835;52.778;5.956;2022-08-11T11:00:58;22.80;97.00
61896;DHT22;47835;52.778;5.956;2022-08-11T11:03:27;22.80;96.80
61896;DHT22;47835;52.778;5.956;2022-08-11T11:05:56;22.80;97.00
61896;DHT22;47835;52.778;5.956;2022-08-11T11:08:26;22.90;96.90
61896;DHT22;47835;52.778;5.956;2022-08-11T11:11:13;22.90;96.90
61896;DHT22;47835;52.778;5.956;2022-08-11T11:13:43;22.90;96.80
61896;DHT22;47835;52.778;5.956;2022-08-11T11:16:29;22.80;96.90
61896;DHT22;47835;52.778;5.956;2022-08-11T11:19:15;22.90;96.90
61896;DHT22;47835;52.778;5.956;2022-08-11T11:21:46;22.90;96.60
61896;DHT22;47835;52.778;5.956;2022-08-11T11:24:42;22.90;96.80
61896;DHT22;47835;52.778;5.956;2022-08-11T11:30:06;22.90;96.70
61896;DHT22;47835;52.778;5.956;2022-08-11T11:32:58;22.90;96.80
61896;DHT22;47835;52.778;5.956;2022-08-11T11:35:45;22.90;96.40
61896;DHT22;47835;52.778;5.956;2022-08-11T11:38:14;22.90;96.50
61896;DHT22;47835;52.778;5.956;2022-08-11T11:40:42;22.90;96.40
61896;DHT22;47835;52.778;5.956;2022-08-11T11:43:08;22.90;96.40
61896;DHT22;47835;52.778;5.956;2022-08-11T11:45:34;22.90;96.30
61896;DHT22;47835;52.778;5.956;2022-08-11T11:48:01;22.90;96.20
61896;DHT22;47835;52.778;5.956;2022-08-11T11:50:34;22.90;96.20
61896;DHT22;47835;52.778;5.956;2022-08-11T11:53:03;22.90;96.20
61896;DHT22;47835;52.778;5.956;2022-08-11T11:55:30;22.90;96.20
61896;DHT22;47835;52.778;5.956;2022-08-11T11:58:00;22.90;96.10
61896;DHT22;47835;52.778;5.956;2022-08-11T12:00:45;22.90;96.10
61896;DHT22;47835;52.778;5.956;2022-08-11T12:03:30;22.90;96.00
61896;DHT22;47835;52.778;5.956;2022-08-11T12:05:56;22.90;96.10
61896;DHT22;47835;52.778;5.956;2022-08-11T12:08:23;22.90;96.10
61896;DHT22;47835;52.778;5.956;2022-08-11T12:10:54;22.90;96.10
61896;DHT22;47835;52.778;5.956;2022-08-11T12:13:45;22.90;96.00
61896;DHT22;47835;52.778;5.956;2022-08-11T12:16:13;22.90;96.10
61896;DHT22;47835;52.778;5.956;2022-08-11T12:18:40;22.90;96.20
61896;DHT22;47835;52.778;5.956;2022-08-11T12:21:07;22.90;95.80
61896;DHT22;47835;52.778;5.956;2022-08-11T12:23:35;22.90;95.70
61896;DHT22;47835;52.778;5.956;2022-08-11T12:26:20;22.90;95.60
61896;DHT22;47835;52.778;5.956;2022-08-11T12:29:05;22.90;95.70
61896;DHT22;47835;52.778;5.956;2022-08-11T12:31:32;22.90;95.60
61896;DHT22;47835;52.778;5.956;2022-08-11T12:34:04;22.90;95.60
61896;DHT22;47835;52.778;5.956;2022-08-11T12:36:34;22.90;95.60
61896;DHT22;47835;52.778;5.956;2022-08-11T12:39:02;23.00;95.40
61896;DHT22;47835;52.778;5.956;2022-08-11T12:41:30;23.00;95.40
61896;DHT22;47835;52.778;5.956;2022-08-11T12:44:14;23.00;95.40
61896;DHT22;47835;52.778;5.956;2022-08-11T12:47:00;23.00;95.40
61896;DHT22;47835;52.778;5.956;2022-08-11T12:49:27;23.00;95.30
61896;DHT22;47835;52.778;5.956;2022-08-11T12:52:22;23.00;95.20
61896;DHT22;47835;52.778;5.956;2022-08-11T12:54:59;23.00;95.20
61896;DHT22;47835;52.778;5.956;2022-08-11T12:57:43;23.00;95.00
61896;DHT22;47835;52.778;5.956;2022-08-11T13:00:29;23.00;95.10
61896;DHT22;47835;52.778;5.956;2022-08-11T13:03:15;23.10;95.10
61896;DHT22;47835;52.778;5.956;2022-08-11T13:06:03;23.00;95.30
61896;DHT22;47835;52.778;5.956;2022-08-11T13:08:34;23.00;95.30
61896;DHT22;47835;52.778;5.956;2022-08-11T13:11:01;23.00;94.90
61896;DHT22;47835;52.778;5.956;2022-08-11T13:13:47;23.10;95.30
61896;DHT22;47835;52.778;5.956;2022-08-11T13:16:14;23.00;95.30
61896;DHT22;47835;52.778;5.956;2022-08-11T13:18:41;23.10;95.30
61896;DHT22;47835;52.778;5.956;2022-08-11T13:21:09;23.00;95.10
61896;DHT22;47835;52.778;5.956;2022-08-11T13:23:37;23.10;95.10
61896;DHT22;47835;52.778;5.956;2022-08-11T13:26:04;23.10;95.10
61896;DHT22;47835;52.778;5.956;2022-08-11T13:28:32;23.00;95.10
61896;DHT22;47835;52.778;5.956;2022-08-11T13:31:00;23.10;95.10
61896;DHT22;47835;52.778;5.956;2022-08-11T13:33:51;23.10;95.10
61896;DHT22;47835;52.778;5.956;2022-08-11T13:36:19;23.10;95.10
61896;DHT22;47835;52.778;5.956;2022-08-11T13:38:45;23.10;95.00
61896;DHT22;47835;52.778;5.956;2022-08-11T13:41:12;23.10;94.90
61896;DHT22;47835;52.778;5.956;2022-08-11T13:43:57;23.00;94.80
61896;DHT22;47835;52.778;5.956;2022-08-11T13:46:24;23.10;94.70
61896;DHT22;47835;52.778;5.956;2022-08-11T13:48:53;23.00;94.40
61896;DHT22;47835;52.778;5.956;2022-08-11T13:51:20;23.10;95.00
61896;DHT22;47835;52.778;5.956;2022-08-11T13:54:06;23.10;94.90
61896;DHT22;47835;52.778;5.956;2022-08-11T13:56:33;23.10;94.90
61896;DHT22;47835;52.778;5.956;2022-08-11T13:59:01;23.10;94.80
61896;DHT22;47835;52.778;5.956;2022-08-11T14:01:31;23.10;95.00
61896;DHT22;47835;52.778;5.956;2022-08-11T14:04:02;23.10;95.90
61896;DHT22;47835;52.778;5.956;2022-08-11T14:06:30;23.10;95.40
61896;DHT22;47835;52.778;5.956;2022-08-11T14:08:56;23.10;96.60
61896;DHT22;47835;52.778;5.956;2022-08-11T14:11:23;23.10;97.10
61896;DHT22;47835;52.778;5.956;2022-08-11T14:14:10;23.10;96.90
61896;DHT22;47835;52.778;5.956;2022-08-11T14:16:42;23.20;95.50
61896;DHT22;47835;52.778;5.956;2022-08-11T14:19:11;23.20;96.40
61896;DHT22;47835;52.778;5.956;2022-08-11T14:21:41;23.20;96.30
61896;DHT22;47835;52.778;5.956;2022-08-11T14:24:26;23.20;96.20
61896;DHT22;47835;52.778;5.956;2022-08-11T14:26:52;23.20;96.20
61896;DHT22;47835;52.778;5.956;2022-08-11T14:29:20;23.20;95.90
61896;DHT22;47835;52.778;5.956;2022-08-11T14:31:56;23.20;95.90
61896;DHT22;47835;52.778;5.956;2022-08-11T14:34:25;23.20;95.10
61896;DHT22;47835;52.778;5.956;2022-08-11T14:36:55;23.20;95.30
61896;DHT22;47835;52.778;5.956;2022-08-11T14:39:25;23.20;95.40
61896;DHT22;47835;52.778;5.956;2022-08-11T14:42:00;23.20;96.30
61896;DHT22;47835;52.778;5.956;2022-08-11T14:44:51;23.20;95.80
61896;DHT22;47835;52.778;5.956;2022-08-11T14:47:39;23.20;95.20
61896;DHT22;47835;52.778;5.956;2022-08-11T14:50:08;23.20;95.30
61896;DHT22;47835;52.778;5.956;2022-08-11T14:52:36;23.20;95.60
61896;DHT22;47835;52.778;5.956;2022-08-11T14:55:03;23.30;94.90
61896;DHT22;47835;52.778;5.956;2022-08-11T14:57:48;23.30;95.50
61896;DHT22;47835;52.778;5.956;2022-08-11T15:00:15;23.30;95.40
61896;DHT22;47835;52.778;5.956;2022-08-11T15:02:44;23.30;95.40
61896;DHT22;47835;52.778;5.956;2022-08-11T15:05:29;23.30;95.30
61896;DHT22;47835;52.778;5.956;2022-08-11T15:07:56;23.40;95.30
61896;DHT22;47835;52.778;5.956;2022-08-11T15:10:23;23.40;94.90
61896;DHT22;47835;52.778;5.956;2022-08-11T15:12:49;23.40;95.90
61896;DHT22;47835;52.778;5.956;2022-08-11T15:15:16;23.40;95.50
61896;DHT22;47835;52.778;5.956;2022-08-11T15:18:04;23.40;95.10
61896;DHT22;47835;52.778;5.956;2022-08-11T15:20:32;23.50;95.20
61896;DHT22;47835;52.778;5.956;2022-08-11T15:23:17;23.50;93.40
61896;DHT22;47835;52.778;5.956;2022-08-11T15:26:09;23.50;93.50
61896;DHT22;47835;52.778;5.956;2022-08-11T15:28:39;23.60;95.10
61896;DHT22;47835;52.778;5.956;2022-08-11T15:31:26;23.60;95.10
61896;DHT22;47835;52.778;5.956;2022-08-11T15:34:14;23.60;94.90
61896;DHT22;47835;52.778;5.956;2022-08-11T15:37:03;23.60;95.00
61896;DHT22;47835;52.778;5.956;2022-08-11T15:43:21;23.60;95.00
61896;DHT22;47835;52.778;5.956;2022-08-11T15:46:10;23.60;95.50
61896;DHT22;47835;52.778;5.956;2022-08-11T15:48:43;23.60;95.00
61896;DHT22;47835;52.778;5.956;2022-08-11T15:51:15;23.70;94.80
61896;DHT22;47835;52.778;5.956;2022-08-11T15:53:46;23.70;94.90
61896;DHT22;47835;52.778;5.956;2022-08-11T15:56:15;23.60;94.80
61896;DHT22;47835;52.778;5.956;2022-08-11T15:58:45;23.60;94.70
61896;DHT22;47835;52.778;5.956;2022-08-11T16:01:29;23.60;94.60
61896;DHT22;47835;52.778;5.956;2022-08-11T16:04:17;23.60;94.50
61896;DHT22;47835;52.778;5.956;2022-08-11T16:07:05;23.60;94.40
61896;DHT22;47835;52.778;5.956;2022-08-11T16:12:42;23.60;94.20
61896;DHT22;47835;52.778;5.956;2022-08-11T16:15:44;23.60;94.50
61896;DHT22;47835;52.778;5.956;2022-08-11T16:18:33;23.60;96.00
61896;DHT22;47835;52.778;5.956;2022-08-11T16:21:12;23.60;96.30
61896;DHT22;47835;52.778;5.956;2022-08-11T16:23:41;23.60;96.40
61896;DHT22;47835;52.778;5.956;2022-08-11T16:26:07;23.60;96.80
61896;DHT22;47835;52.778;5.956;2022-08-11T16:28:35;23.60;96.90
61896;DHT22;47835;52.778;5.956;2022-08-11T16:31:03;23.70;97.40
61896;DHT22;47835;52.778;5.956;2022-08-11T16:33:39;23.60;97.30
61896;DHT22;47835;52.778;5.956;2022-08-11T16:36:07;23.70;96.90
61896;DHT22;47835;52.778;5.956;2022-08-11T16:38:53;23.60;96.70
61896;DHT22;47835;52.778;5.956;2022-08-11T16:41:21;23.70;96.80
61896;DHT22;47835;52.778;5.956;2022-08-11T16:44:08;23.70;95.90
61896;DHT22;47835;52.778;5.956;2022-08-11T16:46:54;23.70;96.40
61896;DHT22;47835;52.778;5.956;2022-08-11T16:51:52;23.70;95.90
61896;DHT22;47835;52.778;5.956;2022-08-11T16:54:18;23.70;95.70
61896;DHT22;47835;52.778;5.956;2022-08-11T16:56:49;23.70;95.40
61896;DHT22;47835;52.778;5.956;2022-08-11T16:59:28;23.70;95.20
61896;DHT22;47835;52.778;5.956;2022-08-11T17:02:17;23.70;95.20
61896;DHT22;47835;52.778;5.956;2022-08-11T17:05:08;23.70;95.20
61896;DHT22;47835;52.778;5.956;2022-08-11T17:07:55;23.70;95.00
61896;DHT22;47835;52.778;5.956;2022-08-11T17:10:49;23.70;94.90
61896;DHT22;47835;52.778;5.956;2022-08-11T17:13:46;23.70;95.40
61896;DHT22;47835;52.778;5.956;2022-08-11T17:16:17;23.80;95.00
61896;DHT22;47835;52.778;5.956;2022-08-11T17:19:00;23.80;95.50
61896;DHT22;47835;52.778;5.956;2022-08-11T17:21:34;23.80;95.90
61896;DHT22;47835;52.778;5.956;2022-08-11T17:24:06;23.80;95.40
61896;DHT22;47835;52.778;5.956;2022-08-11T17:26:44;23.80;95.70
61896;DHT22;47835;52.778;5.956;2022-08-11T17:29:33;23.90;96.20
61896;DHT22;47835;52.778;5.956;2022-08-11T17:32:01;23.90;96.20
61896;DHT22;47835;52.778;5.956;2022-08-11T17:34:47;23.90;95.90
61896;DHT22;47835;52.778;5.956;2022-08-11T17:37:34;23.90;95.80
61896;DHT22;47835;52.778;5.956;2022-08-11T17:40:04;23.90;95.00
61896;DHT22;47835;52.778;5.956;2022-08-11T17:42:32;23.90;95.20
61896;DHT22;47835;52.778;5.956;2022-08-11T17:45:18;23.90;95.20
61896;DHT22;47835;52.778;5.956;2022-08-11T17:48:04;23.90;95.10
61896;DHT22;47835;52.778;5.956;2022-08-11T17:50:51;23.90;92.90
61896;DHT22;47835;52.778;5.956;2022-08-11T17:53:18;23.90;93.70
61896;DHT22;47835;52.778;5.956;2022-08-11T17:56:04;23.90;93.00
61896;DHT22;47835;52.778;5.956;2022-08-11T17:58:49;23.90;92.40
61896;DHT22;47835;52.778;5.956;2022-08-11T18:01:36;23.90;91.90
61896;DHT22;47835;52.778;5.956;2022-08-11T18:04:05;23.90;90.60
61896;DHT22;47835;52.778;5.956;2022-08-11T18:06:32;23.90;91.30
61896;DHT22;47835;52.778;5.956;2022-08-11T18:09:01;23.90;90.30
61896;DHT22;47835;52.778;5.956;2022-08-11T18:11:47;23.90;91.20
61896;DHT22;47835;52.778;5.956;2022-08-11T18:14:34;23.90;90.60
61896;DHT22;47835;52.778;5.956;2022-08-11T18:17:19;23.90;90.00
61896;DHT22;47835;52.778;5.956;2022-08-11T18:20:04;23.90;88.40
61896;DHT22;47835;52.778;5.956;2022-08-11T18:22:50;23.90;89.90
61896;DHT22;47835;52.778;5.956;2022-08-11T18:25:39;23.90;89.60
61896;DHT22;47835;52.778;5.956;2022-08-11T18:28:29;24.00;89.70
61896;DHT22;47835;52.778;5.956;2022-08-11T18:31:17;24.00;88.60
61896;DHT22;47835;52.778;5.956;2022-08-11T18:34:06;24.00;88.70
61896;DHT22;47835;52.778;5.956;2022-08-11T18:37:04;24.10;88.30
61896;DHT22;47835;52.778;5.956;2022-08-11T18:39:57;24.00;88.50
61896;DHT22;47835;52.778;5.956;2022-08-11T18:42:43;24.00;88.50
61896;DHT22;47835;52.778;5.956;2022-08-11T18:45:28;24.10;88.60
61896;DHT22;47835;52.778;5.956;2022-08-11T18:48:15;24.10;87.40
61896;DHT22;47835;52.778;5.956;2022-08-11T18:51:02;24.10;87.30
61896;DHT22;47835;52.778;5.956;2022-08-11T18:53:51;24.10;87.30
61896;DHT22;47835;52.778;5.956;2022-08-11T18:56:36;24.10;87.00
61896;DHT22;47835;52.778;5.956;2022-08-11T18:59:23;24.10;87.10
61896;DHT22;47835;52.778;5.956;2022-08-11T19:02:09;24.10;87.50
61896;DHT22;47835;52.778;5.956;2022-08-11T19:04:55;24.10;86.90
61896;DHT22;47835;52.778;5.956;2022-08-11T19:07:42;24.10;87.10
61896;DHT22;47835;52.778;5.956;2022-08-11T19:10:27;24.10;86.90
61896;DHT22;47835;52.778;5.956;2022-08-11T19:13:12;24.10;86.80
61896;DHT22;47835;52.778;5.956;2022-08-11T19:15:57;24.10;86.50
61896;DHT22;47835;52.778;5.956;2022-08-11T19:18:42;24.10;85.20
61896;DHT22;47835;52.778;5.956;2022-08-11T19:21:29;24.10;84.10
61896;DHT22;47835;52.778;5.956;2022-08-11T19:24:14;24.10;86.30
61896;DHT22;47835;52.778;5.956;2022-08-11T19:27:00;24.10;86.60
61896;DHT22;47835;52.778;5.956;2022-08-11T19:29:45;24.10;87.40